createdAt,value
2018-10-18T00:01:17.965Z,15.14
2018-10-18T00:03:44.310Z,15.14
2018-10-18T00:06:10.696Z,15.13
2018-10-18T00:08:37.001Z,15.14
2018-10-18T00:11:03.311Z,15.12
2018-10-18T00:13:29.660Z,15.14
2018-10-18T00:15:55.962Z,15.19
2018-10-18T00:18:22.313Z,15.18
2018-10-18T00:20:48.647Z,15.16
2018-10-18T00:23:15.009Z,15.18
2018-10-18T00:25:41.304Z,15.18
2018-10-18T00:28:07.627Z,15.17
2018-10-18T00:30:33.944Z,15.16
2018-10-18T00:33:00.251Z,15.16
2018-10-18T00:35:26.556Z,15.11
2018-10-18T00:37:52.931Z,15.06
2018-10-18T00:40:19.189Z,15.04
2018-10-18T00:42:45.488Z,15.01
2018-10-18T00:45:11.823Z,14.98
2018-10-18T00:47:38.170Z,14.98
2018-10-18T00:50:04.524Z,14.94
2018-10-18T00:52:30.838Z,14.94
2018-10-18T00:54:57.141Z,14.93
2018-10-18T00:57:23.479Z,14.89
2018-10-18T00:59:49.779Z,14.87
2018-10-18T01:02:16.167Z,14.87
2018-10-18T01:04:42.417Z,14.85
2018-10-18T01:07:08.730Z,14.81
2018-10-18T01:09:35.069Z,14.80
2018-10-18T01:12:01.394Z,14.79
2018-10-18T01:14:27.673Z,14.78
2018-10-18T01:16:54.004Z,14.79
2018-10-18T01:19:20.371Z,14.78
2018-10-18T01:21:46.703Z,14.77
2018-10-18T01:24:13.115Z,14.77
2018-10-18T01:26:39.304Z,14.75
2018-10-18T01:29:05.631Z,14.72
2018-10-18T01:31:31.932Z,14.75
2018-10-18T01:33:58.240Z,14.72
2018-10-18T01:36:24.637Z,14.71
2018-10-18T01:38:50.942Z,14.75
2018-10-18T01:41:17.274Z,14.73
2018-10-18T01:43:43.579Z,14.71
2018-10-18T01:46:09.911Z,14.75
2018-10-18T01:48:36.287Z,14.76
2018-10-18T01:51:02.617Z,14.70
2018-10-18T01:53:28.913Z,14.63
2018-10-18T01:55:55.259Z,14.61
2018-10-18T01:58:21.558Z,14.54
2018-10-18T02:00:47.857Z,14.49
2018-10-18T02:03:14.232Z,14.47
2018-10-18T02:05:40.531Z,14.43
2018-10-18T02:08:06.928Z,14.41
2018-10-18T02:10:33.161Z,14.40
2018-10-18T02:12:59.469Z,14.36
2018-10-18T02:15:25.764Z,14.37
2018-10-18T02:17:52.182Z,14.39
2018-10-18T02:20:18.436Z,14.43
2018-10-18T02:22:44.778Z,14.44
2018-10-18T02:25:11.133Z,14.39
2018-10-18T02:27:37.415Z,14.44
2018-10-18T02:30:07.668Z,14.48
2018-10-18T02:32:33.925Z,14.49
2018-10-18T02:35:00.254Z,14.48
2018-10-18T02:37:26.601Z,14.50
2018-10-18T02:39:52.921Z,14.50
2018-10-18T02:42:19.287Z,14.47
2018-10-18T02:44:45.569Z,14.41
2018-10-18T02:47:11.894Z,14.39
2018-10-18T02:49:38.213Z,14.36
2018-10-18T02:52:04.549Z,14.33
2018-10-18T02:54:30.879Z,14.27
2018-10-18T02:56:57.217Z,14.26
2018-10-18T02:59:23.566Z,14.26
2018-10-18T03:01:49.865Z,14.21
2018-10-18T03:04:16.171Z,14.17
2018-10-18T03:06:42.499Z,14.07
2018-10-18T03:09:08.833Z,14.00
2018-10-18T03:11:35.203Z,13.95
2018-10-18T03:14:01.541Z,13.88
2018-10-18T03:16:27.868Z,13.86
2018-10-18T03:18:54.175Z,13.83
2018-10-18T03:21:20.521Z,13.78
2018-10-18T03:23:46.850Z,13.67
2018-10-18T03:26:13.194Z,13.58
2018-10-18T03:28:39.507Z,13.55
2018-10-18T03:31:05.821Z,13.60
2018-10-18T03:33:32.120Z,13.63
2018-10-18T03:35:58.475Z,13.58
2018-10-18T03:38:24.781Z,13.56
2018-10-18T03:40:51.135Z,13.53
2018-10-18T03:43:17.456Z,13.46
2018-10-18T03:45:43.817Z,13.50
2018-10-18T03:48:10.150Z,13.54
2018-10-18T03:50:36.395Z,13.48
2018-10-18T03:53:02.743Z,13.39
2018-10-18T03:55:29.050Z,13.30
2018-10-18T03:57:55.340Z,13.35
2018-10-18T04:00:21.761Z,13.38
2018-10-18T04:02:47.996Z,13.32
2018-10-18T04:05:14.307Z,13.24
2018-10-18T04:07:40.670Z,13.08
2018-10-18T04:10:06.982Z,12.98
2018-10-18T04:12:33.365Z,12.94
2018-10-18T04:14:59.639Z,12.88
2018-10-18T04:17:25.984Z,12.90
2018-10-18T04:19:52.287Z,12.82
2018-10-18T04:22:18.620Z,12.79
2018-10-18T04:24:44.969Z,12.78
2018-10-18T04:27:11.301Z,12.81
2018-10-18T04:29:37.639Z,12.90
2018-10-18T04:32:03.942Z,12.88
2018-10-18T04:34:30.264Z,13.00
2018-10-18T04:36:56.572Z,12.86
2018-10-18T04:39:22.889Z,12.85
2018-10-18T04:41:49.237Z,12.84
2018-10-18T04:44:15.563Z,12.78
2018-10-18T04:46:41.884Z,12.90
2018-10-18T04:49:08.273Z,13.05
2018-10-18T04:51:34.560Z,13.17
2018-10-18T04:54:00.902Z,13.22
2018-10-18T04:56:27.229Z,13.27
2018-10-18T04:58:53.553Z,13.21
2018-10-18T05:01:19.986Z,13.22
2018-10-18T05:03:46.156Z,13.18
2018-10-18T05:06:12.490Z,13.17
2018-10-18T05:08:38.800Z,13.31
2018-10-18T05:11:05.146Z,13.38
2018-10-18T05:13:31.461Z,13.42
2018-10-18T05:15:57.808Z,13.48
2018-10-18T05:18:24.107Z,13.52
2018-10-18T05:20:50.399Z,13.56
2018-10-18T05:23:16.725Z,13.64
2018-10-18T05:25:43.101Z,13.78
2018-10-18T05:28:09.425Z,13.88
2018-10-18T05:30:35.745Z,13.90
2018-10-18T05:33:02.056Z,13.98
2018-10-18T05:35:28.367Z,14.15
2018-10-18T05:37:54.691Z,14.36
2018-10-18T05:40:21.017Z,14.52
2018-10-18T05:42:47.345Z,14.62
2018-10-18T05:45:13.651Z,14.74
2018-10-18T05:47:39.955Z,14.85
2018-10-18T05:50:06.260Z,14.93
2018-10-18T05:52:32.564Z,15.18
2018-10-18T05:54:58.896Z,15.28
2018-10-18T05:57:25.210Z,15.37
2018-10-18T05:59:51.547Z,15.45
2018-10-18T06:02:17.851Z,15.25
2018-10-18T06:04:44.148Z,15.37
2018-10-18T06:07:10.574Z,15.53
2018-10-18T06:09:36.752Z,15.65
2018-10-18T06:12:03.053Z,15.71
2018-10-18T06:14:29.355Z,15.79
2018-10-18T06:16:55.713Z,15.81
2018-10-18T06:19:22.041Z,16.03
2018-10-18T06:21:48.380Z,16.18
2018-10-18T06:24:14.710Z,16.34
2018-10-18T06:26:41.036Z,16.43
2018-10-18T06:29:07.410Z,16.51
2018-10-18T06:31:33.646Z,16.68
2018-10-18T06:33:59.973Z,16.91
2018-10-18T06:36:26.271Z,17.07
2018-10-18T06:38:52.598Z,17.20
2018-10-18T06:41:18.967Z,17.45
2018-10-18T06:43:45.199Z,17.61
2018-10-18T06:46:11.574Z,17.72
2018-10-18T06:48:37.899Z,17.72
2018-10-18T06:51:04.205Z,17.79
2018-10-18T06:53:30.557Z,17.68
2018-10-18T06:55:56.860Z,17.76
2018-10-18T06:58:23.189Z,18.11
2018-10-18T07:00:49.516Z,18.49
2018-10-18T07:03:15.816Z,18.63
2018-10-18T07:05:42.149Z,18.69
2018-10-18T07:08:08.483Z,18.84
2018-10-18T07:10:34.780Z,18.66
2018-10-18T07:13:01.103Z,18.70
2018-10-18T07:15:27.431Z,18.95
2018-10-18T07:17:53.742Z,19.07
2018-10-18T07:20:20.041Z,19.44
2018-10-18T07:22:46.345Z,19.40
2018-10-18T07:25:12.663Z,19.41
2018-10-18T07:27:38.982Z,19.48
2018-10-18T07:30:05.325Z,19.70
2018-10-18T07:32:31.584Z,19.82
2018-10-18T07:34:57.965Z,19.81
2018-10-18T07:37:24.252Z,19.85
2018-10-18T07:39:50.581Z,19.92
2018-10-18T07:42:16.978Z,20.16
2018-10-18T07:44:43.216Z,20.53
2018-10-18T07:47:09.541Z,20.94
2018-10-18T07:49:35.872Z,21.11
2018-10-18T07:52:02.172Z,21.14
2018-10-18T07:54:28.481Z,20.96
2018-10-18T07:56:54.781Z,20.98
2018-10-18T07:59:21.110Z,21.20
2018-10-18T08:01:47.418Z,21.51
2018-10-18T08:04:13.752Z,21.57
2018-10-18T08:06:40.053Z,21.47
2018-10-18T08:09:06.366Z,21.66
2018-10-18T08:11:32.695Z,21.78
2018-10-18T08:13:59.021Z,22.14
2018-10-18T08:16:25.332Z,22.13
2018-10-18T08:18:51.660Z,22.24
2018-10-18T08:21:17.942Z,22.31
2018-10-18T08:23:44.270Z,22.15
2018-10-18T08:26:10.568Z,21.84
2018-10-18T08:28:36.896Z,21.88
2018-10-18T08:31:03.265Z,22.11
2018-10-18T08:33:29.587Z,22.20
2018-10-18T08:35:55.928Z,22.33
2018-10-18T08:38:22.273Z,22.21
2018-10-18T08:40:48.645Z,22.60
2018-10-18T08:43:14.982Z,22.88
2018-10-18T08:45:41.248Z,23.04
2018-10-18T08:48:07.576Z,23.27
2018-10-18T08:50:33.945Z,23.48
2018-10-18T08:53:00.249Z,23.29
2018-10-18T08:55:26.607Z,22.93
2018-10-18T08:57:52.911Z,23.05
2018-10-18T09:00:19.225Z,23.25
2018-10-18T09:02:45.569Z,23.27
2018-10-18T09:05:11.874Z,23.48
2018-10-18T09:07:38.181Z,23.43
2018-10-18T09:10:04.717Z,23.46
2018-10-18T09:12:30.805Z,23.56
2018-10-18T09:14:57.108Z,24.06
2018-10-18T09:17:23.448Z,24.11
2018-10-18T09:19:49.784Z,24.20
2018-10-18T09:22:16.115Z,24.57
2018-10-18T09:24:42.480Z,24.60
2018-10-18T09:27:08.857Z,24.39
2018-10-18T09:29:35.214Z,24.72
2018-10-18T09:32:01.544Z,24.56
2018-10-18T09:34:27.912Z,24.40
2018-10-18T09:36:54.289Z,24.18
2018-10-18T09:39:20.653Z,24.26
2018-10-18T09:41:46.952Z,24.38
2018-10-18T09:44:13.322Z,24.99
2018-10-18T09:46:39.643Z,24.90
2018-10-18T09:49:06.080Z,24.15
2018-10-18T09:51:32.319Z,24.49
2018-10-18T09:53:58.661Z,25.09
2018-10-18T09:56:24.968Z,25.35
2018-10-18T09:58:51.273Z,25.21
2018-10-18T10:01:17.733Z,25.06
2018-10-18T10:03:43.924Z,24.73
2018-10-18T10:06:10.234Z,24.51
2018-10-18T10:08:36.564Z,23.87
2018-10-18T10:11:02.895Z,23.90
2018-10-18T10:13:29.332Z,24.26
2018-10-18T10:15:55.507Z,23.95
2018-10-18T10:18:21.928Z,23.29
2018-10-18T10:20:48.127Z,23.36
2018-10-18T10:23:14.523Z,23.46
2018-10-18T10:25:40.815Z,23.39
2018-10-18T10:28:07.173Z,23.54
2018-10-18T10:30:33.485Z,23.45
2018-10-18T10:32:59.842Z,23.58
2018-10-18T10:35:26.194Z,23.76
2018-10-18T10:37:52.496Z,23.83
2018-10-18T10:40:18.891Z,23.88
2018-10-18T10:42:45.212Z,23.61
2018-10-18T10:45:11.628Z,24.06
2018-10-18T10:47:37.880Z,24.52
2018-10-18T10:50:04.237Z,24.72
2018-10-18T10:52:30.599Z,24.26
2018-10-18T10:54:56.927Z,24.20
2018-10-18T10:57:23.228Z,24.70
2018-10-18T10:59:49.557Z,24.75
2018-10-18T11:02:15.925Z,24.73
2018-10-18T11:04:42.172Z,25.23
2018-10-18T11:07:08.480Z,25.77
2018-10-18T11:09:34.890Z,26.11
2018-10-18T11:12:01.256Z,25.35
2018-10-18T11:14:27.539Z,25.08
2018-10-18T11:16:53.903Z,25.23
2018-10-18T11:19:20.168Z,25.11
2018-10-18T11:21:46.488Z,25.49
2018-10-18T11:24:12.902Z,25.20
2018-10-18T11:26:39.136Z,24.90
2018-10-18T11:29:05.480Z,25.02
2018-10-18T11:31:31.784Z,25.29
2018-10-18T11:33:58.153Z,25.82
2018-10-18T11:36:24.479Z,26.36
2018-10-18T11:38:50.808Z,26.28
2018-10-18T11:41:17.133Z,26.21
2018-10-18T11:43:43.457Z,25.17
2018-10-18T11:46:09.776Z,24.88
2018-10-18T11:48:36.110Z,25.13
2018-10-18T11:51:02.439Z,25.51
2018-10-18T11:53:28.779Z,25.60
2018-10-18T11:55:55.115Z,25.50
2018-10-18T11:58:21.423Z,24.72
2018-10-18T12:00:47.804Z,24.95
2018-10-18T12:03:14.200Z,24.42
2018-10-18T12:05:40.466Z,24.67
2018-10-18T12:08:06.804Z,24.86
2018-10-18T12:10:33.112Z,24.39
2018-10-18T12:12:59.432Z,24.11
2018-10-18T12:15:25.762Z,24.32
2018-10-18T12:17:52.083Z,24.60
2018-10-18T12:20:18.470Z,24.74
2018-10-18T12:22:44.783Z,24.95
2018-10-18T12:25:11.105Z,25.06
2018-10-18T12:27:37.441Z,25.08
2018-10-18T12:30:03.752Z,25.02
2018-10-18T12:32:30.081Z,25.11
2018-10-18T12:34:56.508Z,25.08
2018-10-18T12:37:22.769Z,25.12
2018-10-18T12:39:49.095Z,24.59
2018-10-18T12:42:15.413Z,24.01
2018-10-18T12:44:41.734Z,24.34
2018-10-18T12:47:08.067Z,24.40
2018-10-18T12:49:34.385Z,24.22
2018-10-18T12:52:00.702Z,24.46
2018-10-18T12:54:27.100Z,24.20
2018-10-18T12:56:53.429Z,23.69
2018-10-18T12:59:19.769Z,23.73
2018-10-18T13:01:46.117Z,24.05
2018-10-18T13:04:12.418Z,24.33
2018-10-18T13:06:38.749Z,24.28
2018-10-18T13:09:05.126Z,24.26
2018-10-18T13:11:31.418Z,23.93
2018-10-18T13:13:57.804Z,23.79
2018-10-18T13:16:24.126Z,23.34
2018-10-18T13:18:50.448Z,23.03
2018-10-18T13:21:16.816Z,23.12
2018-10-18T13:23:43.128Z,23.04
2018-10-18T13:26:09.489Z,23.01
2018-10-18T13:28:35.784Z,22.99
2018-10-18T13:31:02.113Z,22.96
2018-10-18T13:33:28.453Z,23.06
2018-10-18T13:35:54.776Z,22.98
2018-10-18T13:38:21.098Z,22.81
2018-10-18T13:40:47.490Z,22.71
2018-10-18T13:43:13.752Z,22.76
2018-10-18T13:45:40.073Z,22.63
2018-10-18T13:48:06.498Z,22.54
2018-10-18T13:50:32.734Z,22.56
2018-10-18T13:52:59.065Z,22.75
2018-10-18T13:55:25.394Z,22.90
2018-10-18T13:57:51.729Z,22.88
2018-10-18T14:00:18.149Z,22.76
2018-10-18T14:02:44.366Z,22.71
2018-10-18T14:05:10.786Z,22.61
2018-10-18T14:07:37.050Z,22.47
2018-10-18T14:10:03.366Z,22.39
2018-10-18T14:12:29.691Z,22.42
2018-10-18T14:14:56.043Z,22.36
2018-10-18T14:17:22.529Z,22.35
2018-10-18T14:19:48.738Z,22.18
2018-10-18T14:22:15.055Z,22.13
2018-10-18T14:24:41.383Z,22.13
2018-10-18T14:27:07.707Z,22.13
2018-10-18T14:29:34.024Z,22.14
2018-10-18T14:32:00.400Z,22.10
2018-10-18T14:34:26.772Z,22.03
2018-10-18T14:36:53.104Z,22.01
2018-10-18T14:39:19.431Z,21.94
2018-10-18T14:41:45.750Z,21.96
2018-10-18T14:44:12.129Z,21.95
2018-10-18T14:46:38.382Z,21.90
2018-10-18T14:49:04.693Z,21.87
2018-10-18T14:51:31.069Z,21.74
2018-10-18T14:53:57.361Z,21.61
2018-10-18T14:56:23.691Z,21.50
2018-10-18T14:58:50.024Z,21.42
2018-10-18T15:01:16.348Z,21.33
2018-10-18T15:03:42.723Z,21.30
2018-10-18T15:06:09.056Z,21.23
2018-10-18T15:08:35.378Z,21.08
2018-10-18T15:11:01.722Z,21.07
2018-10-18T15:13:28.015Z,21.11
2018-10-18T15:15:54.361Z,20.97
2018-10-18T15:18:20.731Z,20.89
2018-10-18T15:20:47.097Z,20.81
2018-10-18T15:23:13.473Z,20.68
2018-10-18T15:25:40.119Z,20.56
2018-10-18T15:28:06.110Z,20.48
2018-10-18T15:30:32.470Z,20.40
2018-10-18T15:32:58.763Z,20.34
2018-10-18T15:35:25.078Z,20.28
2018-10-18T15:37:51.439Z,20.19
2018-10-18T15:40:17.719Z,20.12
2018-10-18T15:42:44.039Z,20.09
2018-10-18T15:45:10.401Z,20.15
2018-10-18T15:47:36.757Z,20.18
2018-10-18T15:50:03.019Z,20.15
2018-10-18T15:52:29.345Z,20.05
2018-10-18T15:54:55.670Z,20.00
2018-10-18T15:57:21.998Z,19.95
2018-10-18T15:59:48.314Z,19.90
2018-10-18T16:02:14.649Z,19.87
2018-10-18T16:04:41.011Z,19.85
2018-10-18T16:07:07.308Z,19.75
2018-10-18T16:09:33.634Z,19.71
2018-10-18T16:12:00.017Z,19.66
2018-10-18T16:14:26.419Z,19.65
2018-10-18T16:16:52.761Z,19.63
2018-10-18T16:19:19.079Z,19.60
2018-10-18T16:21:45.432Z,19.57
2018-10-18T16:24:11.794Z,19.48
2018-10-18T16:26:38.138Z,19.40
2018-10-18T16:29:04.459Z,19.31
2018-10-18T16:31:30.780Z,19.24
2018-10-18T16:33:57.191Z,19.17
2018-10-18T16:36:23.423Z,19.16
2018-10-18T16:38:49.752Z,19.12
2018-10-18T16:41:16.410Z,19.07
2018-10-18T16:43:42.438Z,19.04
2018-10-18T16:46:08.888Z,19.01
2018-10-18T16:48:35.108Z,19.00
2018-10-18T16:51:01.465Z,18.99
2018-10-18T16:53:27.768Z,18.99
2018-10-18T16:55:54.129Z,18.99
2018-10-18T16:58:20.431Z,18.98
2018-10-18T17:00:46.762Z,18.91
2018-10-18T17:03:13.083Z,18.85
2018-10-18T17:05:39.413Z,18.76
2018-10-18T17:08:05.796Z,18.70
2018-10-18T17:10:32.072Z,18.63
2018-10-18T17:12:58.406Z,18.59
2018-10-18T17:15:24.743Z,18.58
2018-10-18T17:17:51.104Z,18.57
2018-10-18T17:20:17.558Z,18.48
2018-10-18T17:22:43.762Z,18.44
2018-10-18T17:25:10.125Z,18.42
2018-10-18T17:27:36.455Z,18.42
2018-10-18T17:30:02.778Z,18.41
2018-10-18T17:32:29.092Z,18.38
2018-10-18T17:34:55.431Z,18.31
2018-10-18T17:37:21.927Z,18.28
2018-10-18T17:39:48.305Z,18.22
2018-10-18T17:42:14.696Z,18.19
2018-10-18T17:44:41.009Z,18.06
2018-10-18T17:47:07.318Z,17.91
2018-10-18T17:49:33.726Z,17.78
2018-10-18T17:52:00.062Z,17.67
2018-10-18T17:54:26.335Z,17.59
2018-10-18T17:56:52.714Z,17.50
2018-10-18T17:59:19.037Z,17.42
2018-10-18T18:01:45.382Z,17.32
2018-10-18T18:04:11.735Z,17.24
2018-10-18T18:06:38.208Z,17.17
2018-10-18T18:09:04.389Z,17.00
2018-10-18T18:11:30.750Z,16.87
2018-10-18T18:13:57.085Z,16.78
2018-10-18T18:16:23.413Z,16.74
2018-10-18T18:18:49.802Z,16.71
2018-10-18T18:21:16.135Z,16.61
2018-10-18T18:23:42.469Z,16.51
2018-10-18T18:26:08.823Z,16.45
2018-10-18T18:28:35.155Z,16.38
2018-10-18T18:31:01.508Z,16.29
2018-10-18T18:33:27.866Z,16.25
2018-10-18T18:35:54.193Z,16.22
2018-10-18T18:38:20.513Z,16.18
2018-10-18T18:40:46.854Z,16.17
2018-10-18T18:43:13.188Z,16.17
2018-10-18T18:45:39.910Z,16.13
2018-10-18T18:48:06.198Z,16.09
2018-10-18T18:50:32.519Z,16.04
2018-10-18T18:52:58.877Z,15.96
2018-10-18T18:55:25.155Z,15.93
2018-10-18T18:57:51.474Z,15.88
2018-10-18T19:00:17.860Z,15.85
2018-10-18T19:02:44.159Z,15.80
2018-10-18T19:05:10.475Z,15.73
2018-10-18T19:07:36.831Z,15.72
2018-10-18T19:10:03.168Z,15.67
2018-10-18T19:12:29.492Z,15.59
2018-10-18T19:14:55.863Z,15.58
2018-10-18T19:17:22.189Z,15.53
2018-10-18T19:19:48.529Z,15.38
2018-10-18T19:22:14.901Z,15.32
2018-10-18T19:24:41.244Z,15.29
2018-10-18T19:27:07.576Z,15.18
2018-10-18T19:29:33.895Z,15.15
2018-10-18T19:32:00.242Z,15.14
2018-10-18T19:34:26.584Z,15.14
2018-10-18T19:36:52.917Z,15.10
2018-10-18T19:39:19.290Z,15.11
2018-10-18T19:41:45.614Z,15.10
2018-10-18T19:44:12.035Z,15.04
2018-10-18T19:46:38.447Z,15.02
2018-10-18T19:49:04.740Z,14.99
2018-10-18T19:51:31.076Z,14.95
2018-10-18T19:53:57.409Z,14.94
2018-10-18T19:56:23.745Z,14.96
2018-10-18T19:58:50.086Z,14.97
2018-10-18T20:01:16.445Z,15.02
2018-10-18T20:03:42.785Z,15.04
2018-10-18T20:06:09.121Z,15.02
2018-10-18T20:08:35.457Z,14.98
2018-10-18T20:11:01.808Z,14.89
2018-10-18T20:13:28.130Z,14.86
2018-10-18T20:15:54.510Z,14.90
2018-10-18T20:18:20.852Z,14.89
2018-10-18T20:20:47.169Z,14.80
2018-10-18T20:23:13.497Z,14.78
2018-10-18T20:25:39.939Z,14.68
2018-10-18T20:28:06.122Z,14.65
2018-10-18T20:30:32.480Z,14.62
2018-10-18T20:32:58.865Z,14.61
2018-10-18T20:35:25.174Z,14.61
2018-10-18T20:37:51.487Z,14.66
2018-10-18T20:40:17.792Z,14.67
2018-10-18T20:42:44.137Z,14.72
2018-10-18T20:45:10.537Z,14.74
2018-10-18T20:47:36.893Z,14.74
2018-10-18T20:50:03.118Z,14.74
2018-10-18T20:52:29.508Z,14.71
2018-10-18T20:54:55.808Z,14.71
2018-10-18T20:57:22.136Z,14.72
2018-10-18T20:59:48.463Z,14.74
2018-10-18T21:02:14.823Z,14.74
2018-10-18T21:04:41.164Z,14.76
2018-10-18T21:07:07.491Z,14.76
2018-10-18T21:09:33.888Z,14.73
2018-10-18T21:12:00.244Z,14.70
2018-10-18T21:14:26.546Z,14.64
2018-10-18T21:16:52.902Z,14.56
2018-10-18T21:19:19.198Z,14.53
2018-10-18T21:21:45.614Z,14.51
2018-10-18T21:24:11.855Z,14.52
2018-10-18T21:26:38.180Z,14.53
2018-10-18T21:29:04.562Z,14.50
2018-10-18T21:31:30.881Z,14.45
2018-10-18T21:33:57.318Z,14.42
2018-10-18T21:36:23.578Z,14.40
2018-10-18T21:38:49.893Z,14.35
2018-10-18T21:41:16.227Z,14.28
2018-10-18T21:43:42.561Z,14.21
2018-10-18T21:46:08.889Z,14.16
2018-10-18T21:48:35.214Z,14.13
2018-10-18T21:51:01.600Z,14.14
2018-10-18T21:53:27.873Z,14.13
2018-10-18T21:55:54.197Z,14.09
2018-10-18T21:58:20.562Z,14.10
2018-10-18T22:00:46.905Z,14.08
2018-10-18T22:03:13.318Z,14.04
2018-10-18T22:05:39.572Z,14.01
2018-10-18T22:08:05.885Z,14.01
2018-10-18T22:10:32.217Z,13.96
2018-10-18T22:12:58.558Z,13.94
2018-10-18T22:15:24.923Z,13.96
2018-10-18T22:17:51.207Z,13.89
2018-10-18T22:20:17.534Z,13.88
2018-10-18T22:22:43.841Z,13.86
2018-10-18T22:25:10.155Z,13.81
2018-10-18T22:27:36.498Z,13.75
2018-10-18T22:30:02.840Z,13.77
2018-10-18T22:32:29.141Z,13.83
2018-10-18T22:34:55.484Z,13.86
2018-10-18T22:37:21.836Z,13.85
2018-10-18T22:39:48.093Z,13.84
2018-10-18T22:42:14.445Z,13.81
2018-10-18T22:44:40.812Z,13.80
2018-10-18T22:47:07.186Z,13.81
2018-10-18T22:49:33.482Z,13.78
2018-10-18T22:51:59.786Z,13.71
2018-10-18T22:54:26.133Z,13.56
2018-10-18T22:56:52.457Z,13.55
2018-10-18T22:59:18.828Z,13.64
2018-10-18T23:01:45.129Z,13.66
2018-10-18T23:04:11.497Z,13.56
2018-10-18T23:06:37.807Z,13.48
2018-10-18T23:09:04.156Z,13.45
2018-10-18T23:11:30.511Z,13.51
2018-10-18T23:13:56.808Z,13.54
2018-10-18T23:16:23.143Z,13.52
2018-10-18T23:18:49.439Z,13.44
2018-10-18T23:21:15.810Z,13.41
2018-10-18T23:23:42.096Z,13.29
2018-10-18T23:26:08.423Z,13.26
2018-10-18T23:28:34.754Z,13.24
2018-10-18T23:31:01.059Z,13.16
2018-10-18T23:33:27.363Z,13.15
2018-10-18T23:35:53.675Z,13.12
2018-10-18T23:38:19.985Z,13.08
2018-10-18T23:40:46.314Z,13.05
2018-10-18T23:43:12.629Z,13.03
2018-10-18T23:45:38.963Z,13.01
2018-10-18T23:48:05.295Z,13.01
2018-10-18T23:50:31.593Z,13.03
2018-10-18T23:52:57.934Z,13.02
2018-10-18T23:55:24.239Z,13.03
2018-10-18T23:57:50.582Z,12.90
